sensor_id;sensor_type;location;lat;lon;timestamp;P1;durP1;ratioP1;P2;durP2;ratioP2
6344;SDS011;3205;42.666;23.264;2023-12-07T00:01:59;64.60;;;29.30;;
6344;SDS011;3205;42.666;23.264;2023-12-07T00:04:25;68.47;;;29.53;;
6344;SDS011;3205;42.666;23.264;2023-12-07T00:06:52;59.80;;;29.07;;
6344;SDS011;3205;42.666;23.264;2023-12-07T00:09:18;58.87;;;27.73;;
6344;SDS011;3205;42.666;23.264;2023-12-07T00:11:44;62.20;;;27.80;;
6344;SDS011;3205;42.666;23.264;2023-12-07T00:14:10;61.77;;;28.77;;
6344;SDS011;3205;42.666;23.264;2023-12-07T00:16:37;61.67;;;27.57;;
6344;SDS011;3205;42.666;23.264;2023-12-07T00:19:03;68.83;;;29.10;;
6344;SDS011;3205;42.666;23.264;2023-12-07T00:21:30;62.70;;;27.83;;
6344;SDS011;3205;42.666;23.264;2023-12-07T00:23:56;59.60;;;27.63;;
6344;SDS011;3205;42.666;23.264;2023-12-07T00:26:23;57.97;;;27.10;;
6344;SDS011;3205;42.666;23.264;2023-12-07T00:28:49;63.63;;;27.20;;
6344;SDS011;3205;42.666;23.264;2023-12-07T00:31:15;65.90;;;28.07;;
6344;SDS011;3205;42.666;23.264;2023-12-07T00:33:41;61.57;;;27.60;;
6344;SDS011;3205;42.666;23.264;2023-12-07T00:36:08;59.37;;;26.97;;
6344;SDS011;3205;42.666;23.264;2023-12-07T00:38:35;56.50;;;28.20;;
6344;SDS011;3205;42.666;23.264;2023-12-07T00:41:01;58.40;;;27.70;;
6344;SDS011;3205;42.666;23.264;2023-12-07T00:43:27;61.20;;;27.77;;
6344;SDS011;3205;42.666;23.264;2023-12-07T00:45:54;61.67;;;27.30;;
6344;SDS011;3205;42.666;23.264;2023-12-07T00:48:20;59.03;;;26.90;;
6344;SDS011;3205;42.666;23.264;2023-12-07T00:50:46;59.33;;;26.20;;
6344;SDS011;3205;42.666;23.264;2023-12-07T00:53:13;62.07;;;26.27;;
6344;SDS011;3205;42.666;23.264;2023-12-07T00:55:39;53.43;;;25.00;;
6344;SDS011;3205;42.666;23.264;2023-12-07T00:58:06;49.43;;;26.17;;
6344;SDS011;3205;42.666;23.264;2023-12-07T01:00:32;48.33;;;25.10;;
6344;SDS011;3205;42.666;23.264;2023-12-07T01:02:58;54.17;;;25.57;;
6344;SDS011;3205;42.666;23.264;2023-12-07T01:05:25;52.67;;;25.63;;
6344;SDS011;3205;42.666;23.264;2023-12-07T01:07:51;56.83;;;26.30;;
6344;SDS011;3205;42.666;23.264;2023-12-07T01:10:17;50.00;;;24.93;;
6344;SDS011;3205;42.666;23.264;2023-12-07T01:12:45;54.77;;;26.30;;
6344;SDS011;3205;42.666;23.264;2023-12-07T01:15:11;50.20;;;25.57;;
6344;SDS011;3205;42.666;23.264;2023-12-07T01:17:37;55.07;;;25.27;;
6344;SDS011;3205;42.666;23.264;2023-12-07T01:20:05;63.40;;;28.40;;
6344;SDS011;3205;42.666;23.264;2023-12-07T01:22:37;61.87;;;27.23;;
6344;SDS011;3205;42.666;23.264;2023-12-07T01:25:04;52.17;;;24.50;;
6344;SDS011;3205;42.666;23.264;2023-12-07T01:27:31;58.30;;;26.67;;
6344;SDS011;3205;42.666;23.264;2023-12-07T01:29:58;56.77;;;26.90;;
6344;SDS011;3205;42.666;23.264;2023-12-07T01:32:24;59.20;;;26.70;;
6344;SDS011;3205;42.666;23.264;2023-12-07T01:34:50;58.47;;;27.37;;
6344;SDS011;3205;42.666;23.264;2023-12-07T01:37:16;54.87;;;25.63;;
6344;SDS011;3205;42.666;23.264;2023-12-07T01:39:43;59.83;;;26.17;;
6344;SDS011;3205;42.666;23.264;2023-12-07T01:42:09;56.97;;;27.30;;
6344;SDS011;3205;42.666;23.264;2023-12-07T01:44:37;61.97;;;29.23;;
6344;SDS011;3205;42.666;23.264;2023-12-07T01:47:04;61.53;;;30.60;;
6344;SDS011;3205;42.666;23.264;2023-12-07T01:49:31;66.67;;;31.73;;
6344;SDS011;3205;42.666;23.264;2023-12-07T01:51:58;59.37;;;28.90;;
6344;SDS011;3205;42.666;23.264;2023-12-07T01:54:24;65.87;;;30.00;;
6344;SDS011;3205;42.666;23.264;2023-12-07T01:56:51;61.73;;;28.63;;
6344;SDS011;3205;42.666;23.264;2023-12-07T01:59:17;62.07;;;27.57;;
6344;SDS011;3205;42.666;23.264;2023-12-07T02:01:44;60.30;;;27.77;;
6344;SDS011;3205;42.666;23.264;2023-12-07T02:04:11;65.33;;;28.23;;
6344;SDS011;3205;42.666;23.264;2023-12-07T02:06:38;63.83;;;28.27;;
6344;SDS011;3205;42.666;23.264;2023-12-07T02:09:04;61.67;;;27.53;;
6344;SDS011;3205;42.666;23.264;2023-12-07T02:11:31;66.80;;;29.37;;
6344;SDS011;3205;42.666;23.264;2023-12-07T02:13:57;63.30;;;27.97;;
6344;SDS011;3205;42.666;23.264;2023-12-07T02:16:24;61.57;;;28.17;;
6344;SDS011;3205;42.666;23.264;2023-12-07T02:18:56;64.90;;;28.43;;
6344;SDS011;3205;42.666;23.264;2023-12-07T02:21:34;64.67;;;28.43;;
6344;SDS011;3205;42.666;23.264;2023-12-07T02:24:04;58.07;;;27.77;;
6344;SDS011;3205;42.666;23.264;2023-12-07T02:26:51;65.63;;;27.47;;
6344;SDS011;3205;42.666;23.264;2023-12-07T02:29:17;59.43;;;28.17;;
6344;SDS011;3205;42.666;23.264;2023-12-07T02:31:43;55.57;;;25.77;;
6344;SDS011;3205;42.666;23.264;2023-12-07T02:34:10;59.10;;;27.57;;
6344;SDS011;3205;42.666;23.264;2023-12-07T02:36:36;60.63;;;29.23;;
6344;SDS011;3205;42.666;23.264;2023-12-07T02:39:05;62.57;;;28.07;;
6344;SDS011;3205;42.666;23.264;2023-12-07T02:41:34;60.83;;;28.63;;
6344;SDS011;3205;42.666;23.264;2023-12-07T02:44:03;65.07;;;29.97;;
6344;SDS011;3205;42.666;23.264;2023-12-07T02:46:30;63.30;;;30.80;;
6344;SDS011;3205;42.666;23.264;2023-12-07T02:48:56;66.57;;;30.47;;
6344;SDS011;3205;42.666;23.264;2023-12-07T02:51:23;62.13;;;29.10;;
6344;SDS011;3205;42.666;23.264;2023-12-07T02:53:50;71.53;;;29.10;;
6344;SDS011;3205;42.666;23.264;2023-12-07T02:56:16;64.43;;;29.10;;
6344;SDS011;3205;42.666;23.264;2023-12-07T02:58:42;65.87;;;28.83;;
6344;SDS011;3205;42.666;23.264;2023-12-07T03:01:09;69.63;;;28.43;;
6344;SDS011;3205;42.666;23.264;2023-12-07T03:03:36;61.50;;;28.87;;
6344;SDS011;3205;42.666;23.264;2023-12-07T03:06:03;75.57;;;28.80;;
6344;SDS011;3205;42.666;23.264;2023-12-07T03:08:30;64.60;;;28.63;;
6344;SDS011;3205;42.666;23.264;2023-12-07T03:10:56;61.20;;;27.83;;
6344;SDS011;3205;42.666;23.264;2023-12-07T03:13:22;56.97;;;26.90;;
6344;SDS011;3205;42.666;23.264;2023-12-07T03:15:49;53.73;;;24.90;;
6344;SDS011;3205;42.666;23.264;2023-12-07T03:18:16;53.03;;;24.47;;
6344;SDS011;3205;42.666;23.264;2023-12-07T03:20:42;48.03;;;24.33;;
6344;SDS011;3205;42.666;23.264;2023-12-07T03:23:08;45.83;;;23.10;;
6344;SDS011;3205;42.666;23.264;2023-12-07T03:25:35;44.87;;;23.10;;
6344;SDS011;3205;42.666;23.264;2023-12-07T03:28:01;50.00;;;22.40;;
6344;SDS011;3205;42.666;23.264;2023-12-07T03:30:27;41.50;;;20.93;;
6344;SDS011;3205;42.666;23.264;2023-12-07T03:32:53;45.10;;;21.33;;
6344;SDS011;3205;42.666;23.264;2023-12-07T03:35:20;40.93;;;21.00;;
6344;SDS011;3205;42.666;23.264;2023-12-07T03:37:48;35.43;;;19.40;;
6344;SDS011;3205;42.666;23.264;2023-12-07T03:40:15;35.20;;;19.60;;
6344;SDS011;3205;42.666;23.264;2023-12-07T03:42:41;41.67;;;20.40;;
6344;SDS011;3205;42.666;23.264;2023-12-07T03:45:08;39.60;;;19.13;;
6344;SDS011;3205;42.666;23.264;2023-12-07T03:47:35;34.97;;;19.73;;
6344;SDS011;3205;42.666;23.264;2023-12-07T03:50:01;38.93;;;19.43;;
6344;SDS011;3205;42.666;23.264;2023-12-07T03:52:29;33.43;;;18.03;;
6344;SDS011;3205;42.666;23.264;2023-12-07T03:54:55;40.03;;;18.23;;
6344;SDS011;3205;42.666;23.264;2023-12-07T03:57:21;34.87;;;17.50;;
6344;SDS011;3205;42.666;23.264;2023-12-07T03:59:47;30.60;;;16.53;;
6344;SDS011;3205;42.666;23.264;2023-12-07T04:02:14;35.63;;;19.70;;
6344;SDS011;3205;42.666;23.264;2023-12-07T04:04:40;38.50;;;18.80;;
6344;SDS011;3205;42.666;23.264;2023-12-07T04:07:07;33.30;;;18.30;;
6344;SDS011;3205;42.666;23.264;2023-12-07T04:09:34;36.77;;;19.47;;
6344;SDS011;3205;42.666;23.264;2023-12-07T04:12:00;36.93;;;19.03;;
6344;SDS011;3205;42.666;23.264;2023-12-07T04:14:26;38.93;;;19.73;;
6344;SDS011;3205;42.666;23.264;2023-12-07T04:16:53;35.17;;;18.50;;
6344;SDS011;3205;42.666;23.264;2023-12-07T04:19:19;34.90;;;19.33;;
6344;SDS011;3205;42.666;23.264;2023-12-07T04:21:45;37.30;;;19.53;;
6344;SDS011;3205;42.666;23.264;2023-12-07T04:24:11;37.57;;;19.30;;
6344;SDS011;3205;42.666;23.264;2023-12-07T04:26:38;43.37;;;21.80;;
6344;SDS011;3205;42.666;23.264;2023-12-07T04:29:05;41.00;;;21.23;;
6344;SDS011;3205;42.666;23.264;2023-12-07T04:31:31;37.33;;;21.10;;
6344;SDS011;3205;42.666;23.264;2023-12-07T04:33:57;40.57;;;22.23;;
6344;SDS011;3205;42.666;23.264;2023-12-07T04:36:25;43.20;;;22.97;;
6344;SDS011;3205;42.666;23.264;2023-12-07T04:38:51;42.97;;;21.37;;
6344;SDS011;3205;42.666;23.264;2023-12-07T04:41:17;37.23;;;20.33;;
6344;SDS011;3205;42.666;23.264;2023-12-07T04:43:44;41.67;;;21.57;;
6344;SDS011;3205;42.666;23.264;2023-12-07T04:46:11;39.57;;;21.53;;
6344;SDS011;3205;42.666;23.264;2023-12-07T04:48:37;37.10;;;21.33;;
6344;SDS011;3205;42.666;23.264;2023-12-07T04:51:03;44.83;;;21.90;;
6344;SDS011;3205;42.666;23.264;2023-12-07T04:53:30;43.93;;;21.97;;
6344;SDS011;3205;42.666;23.264;2023-12-07T04:55:56;42.87;;;22.33;;
6344;SDS011;3205;42.666;23.264;2023-12-07T04:58:22;37.77;;;21.53;;
6344;SDS011;3205;42.666;23.264;2023-12-07T05:00:49;40.60;;;21.20;;
6344;SDS011;3205;42.666;23.264;2023-12-07T05:03:15;40.20;;;20.77;;
6344;SDS011;3205;42.666;23.264;2023-12-07T05:05:42;39.33;;;20.33;;
6344;SDS011;3205;42.666;23.264;2023-12-07T05:08:08;38.63;;;21.13;;
6344;SDS011;3205;42.666;23.264;2023-12-07T05:10:34;38.70;;;21.50;;
6344;SDS011;3205;42.666;23.264;2023-12-07T05:13:00;41.80;;;21.10;;
6344;SDS011;3205;42.666;23.264;2023-12-07T05:15:27;44.73;;;22.13;;
6344;SDS011;3205;42.666;23.264;2023-12-07T05:17:53;39.70;;;21.93;;
6344;SDS011;3205;42.666;23.264;2023-12-07T05:20:20;43.67;;;24.40;;
6344;SDS011;3205;42.666;23.264;2023-12-07T05:22:47;46.20;;;24.57;;
6344;SDS011;3205;42.666;23.264;2023-12-07T05:25:15;53.57;;;25.67;;
6344;SDS011;3205;42.666;23.264;2023-12-07T05:27:42;57.33;;;25.70;;
6344;SDS011;3205;42.666;23.264;2023-12-07T05:30:09;54.13;;;26.03;;
6344;SDS011;3205;42.666;23.264;2023-12-07T05:32:36;53.80;;;25.17;;
6344;SDS011;3205;42.666;23.264;2023-12-07T05:35:03;48.30;;;25.47;;
6344;SDS011;3205;42.666;23.264;2023-12-07T05:37:31;43.70;;;23.13;;
6344;SDS011;3205;42.666;23.264;2023-12-07T05:39:58;47.60;;;24.47;;
6344;SDS011;3205;42.666;23.264;2023-12-07T05:42:25;50.50;;;24.40;;
6344;SDS011;3205;42.666;23.264;2023-12-07T05:44:51;44.97;;;22.27;;
6344;SDS011;3205;42.666;23.264;2023-12-07T05:47:17;42.90;;;22.63;;
6344;SDS011;3205;42.666;23.264;2023-12-07T05:49:44;44.73;;;24.30;;
6344;SDS011;3205;42.666;23.264;2023-12-07T05:52:11;40.13;;;23.03;;
6344;SDS011;3205;42.666;23.264;2023-12-07T05:54:38;42.57;;;21.50;;
6344;SDS011;3205;42.666;23.264;2023-12-07T05:57:07;37.47;;;19.87;;
6344;SDS011;3205;42.666;23.264;2023-12-07T05:59:36;39.10;;;21.30;;
6344;SDS011;3205;42.666;23.264;2023-12-07T06:02:02;48.47;;;24.80;;
6344;SDS011;3205;42.666;23.264;2023-12-07T06:04:29;43.43;;;21.23;;
6344;SDS011;3205;42.666;23.264;2023-12-07T06:06:56;34.93;;;20.73;;
6344;SDS011;3205;42.666;23.264;2023-12-07T06:09:23;36.30;;;20.07;;
6344;SDS011;3205;42.666;23.264;2023-12-07T06:11:49;37.40;;;20.30;;
6344;SDS011;3205;42.666;23.264;2023-12-07T06:14:15;38.33;;;21.27;;
6344;SDS011;3205;42.666;23.264;2023-12-07T06:16:42;34.33;;;19.87;;
6344;SDS011;3205;42.666;23.264;2023-12-07T06:19:08;43.57;;;21.57;;
6344;SDS011;3205;42.666;23.264;2023-12-07T06:21:34;42.93;;;22.63;;
6344;SDS011;3205;42.666;23.264;2023-12-07T06:24:00;39.47;;;22.17;;
6344;SDS011;3205;42.666;23.264;2023-12-07T06:26:27;40.20;;;22.53;;
6344;SDS011;3205;42.666;23.264;2023-12-07T06:28:54;41.03;;;23.00;;
6344;SDS011;3205;42.666;23.264;2023-12-07T06:31:20;44.70;;;22.03;;
6344;SDS011;3205;42.666;23.264;2023-12-07T06:33:46;43.47;;;24.47;;
6344;SDS011;3205;42.666;23.264;2023-12-07T06:36:17;38.80;;;21.50;;
6344;SDS011;3205;42.666;23.264;2023-12-07T06:38:44;37.90;;;20.97;;
6344;SDS011;3205;42.666;23.264;2023-12-07T06:41:11;38.43;;;22.10;;
6344;SDS011;3205;42.666;23.264;2023-12-07T06:43:39;44.73;;;23.80;;
6344;SDS011;3205;42.666;23.264;2023-12-07T06:46:05;42.93;;;21.83;;
6344;SDS011;3205;42.666;23.264;2023-12-07T06:48:31;40.33;;;21.33;;
6344;SDS011;3205;42.666;23.264;2023-12-07T06:50:58;37.97;;;20.17;;
6344;SDS011;3205;42.666;23.264;2023-12-07T06:53:24;39.07;;;21.50;;
6344;SDS011;3205;42.666;23.264;2023-12-07T06:55:50;42.03;;;22.00;;
6344;SDS011;3205;42.666;23.264;2023-12-07T06:58:17;36.93;;;20.00;;
6344;SDS011;3205;42.666;23.264;2023-12-07T07:00:44;47.33;;;22.67;;
6344;SDS011;3205;42.666;23.264;2023-12-07T07:03:11;36.93;;;20.97;;
6344;SDS011;3205;42.666;23.264;2023-12-07T07:05:38;34.83;;;19.23;;
6344;SDS011;3205;42.666;23.264;2023-12-07T07:08:04;31.43;;;17.13;;
6344;SDS011;3205;42.666;23.264;2023-12-07T07:10:32;35.77;;;17.13;;
6344;SDS011;3205;42.666;23.264;2023-12-07T07:12:59;27.13;;;16.23;;
6344;SDS011;3205;42.666;23.264;2023-12-07T07:15:26;30.43;;;16.67;;
6344;SDS011;3205;42.666;23.264;2023-12-07T07:17:53;24.13;;;14.90;;
6344;SDS011;3205;42.666;23.264;2023-12-07T07:20:19;22.90;;;14.23;;
6344;SDS011;3205;42.666;23.264;2023-12-07T07:22:46;30.93;;;15.07;;
6344;SDS011;3205;42.666;23.264;2023-12-07T07:25:13;27.23;;;13.67;;
6344;SDS011;3205;42.666;23.264;2023-12-07T07:27:41;30.23;;;13.70;;
6344;SDS011;3205;42.666;23.264;2023-12-07T07:30:07;28.77;;;14.87;;
6344;SDS011;3205;42.666;23.264;2023-12-07T07:32:34;25.03;;;12.93;;
6344;SDS011;3205;42.666;23.264;2023-12-07T07:35:00;22.27;;;12.77;;
6344;SDS011;3205;42.666;23.264;2023-12-07T07:37:27;19.40;;;13.00;;
6344;SDS011;3205;42.666;23.264;2023-12-07T07:39:53;24.73;;;13.17;;
6344;SDS011;3205;42.666;23.264;2023-12-07T07:42:20;19.50;;;12.43;;
6344;SDS011;3205;42.666;23.264;2023-12-07T07:44:46;19.80;;;11.63;;
6344;SDS011;3205;42.666;23.264;2023-12-07T07:47:12;27.67;;;14.30;;
6344;SDS011;3205;42.666;23.264;2023-12-07T07:49:39;22.50;;;13.07;;
6344;SDS011;3205;42.666;23.264;2023-12-07T07:52:06;22.80;;;14.07;;
6344;SDS011;3205;42.666;23.264;2023-12-07T07:54:32;24.00;;;13.30;;
6344;SDS011;3205;42.666;23.264;2023-12-07T07:56:58;22.57;;;11.93;;
6344;SDS011;3205;42.666;23.264;2023-12-07T07:59:24;21.50;;;11.23;;
6344;SDS011;3205;42.666;23.264;2023-12-07T08:01:51;15.70;;;10.87;;
6344;SDS011;3205;42.666;23.264;2023-12-07T08:04:17;17.03;;;11.07;;
6344;SDS011;3205;42.666;23.264;2023-12-07T08:06:44;16.93;;;10.97;;
6344;SDS011;3205;42.666;23.264;2023-12-07T08:09:11;14.37;;;8.53;;
6344;SDS011;3205;42.666;23.264;2023-12-07T08:11:38;11.67;;;8.23;;
6344;SDS011;3205;42.666;23.264;2023-12-07T08:14:04;11.50;;;7.33;;
6344;SDS011;3205;42.666;23.264;2023-12-07T08:16:30;9.20;;;6.50;;
6344;SDS011;3205;42.666;23.264;2023-12-07T08:18:56;11.60;;;7.50;;
6344;SDS011;3205;42.666;23.264;2023-12-07T08:21:23;9.93;;;6.83;;
6344;SDS011;3205;42.666;23.264;2023-12-07T08:23:50;13.37;;;8.73;;
6344;SDS011;3205;42.666;23.264;2023-12-07T08:26:17;15.17;;;8.73;;
6344;SDS011;3205;42.666;23.264;2023-12-07T08:28:43;12.27;;;7.77;;
6344;SDS011;3205;42.666;23.264;2023-12-07T08:31:10;10.97;;;6.60;;
6344;SDS011;3205;42.666;23.264;2023-12-07T08:33:36;14.20;;;7.27;;
6344;SDS011;3205;42.666;23.264;2023-12-07T08:36:04;13.43;;;7.50;;
6344;SDS011;3205;42.666;23.264;2023-12-07T08:38:31;11.77;;;8.00;;
6344;SDS011;3205;42.666;23.264;2023-12-07T08:40:57;11.33;;;7.47;;
6344;SDS011;3205;42.666;23.264;2023-12-07T08:43:25;9.23;;;6.53;;
6344;SDS011;3205;42.666;23.264;2023-12-07T08:45:51;13.30;;;7.43;;
6344;SDS011;3205;42.666;23.264;2023-12-07T08:48:17;9.13;;;5.93;;
6344;SDS011;3205;42.666;23.264;2023-12-07T08:50:45;6.27;;;5.53;;
6344;SDS011;3205;42.666;23.264;2023-12-07T08:53:12;7.53;;;5.40;;
6344;SDS011;3205;42.666;23.264;2023-12-07T08:55:38;7.43;;;5.60;;
6344;SDS011;3205;42.666;23.264;2023-12-07T08:58:05;17.47;;;8.33;;
6344;SDS011;3205;42.666;23.264;2023-12-07T09:00:32;9.73;;;5.73;;
6344;SDS011;3205;42.666;23.264;2023-12-07T09:02:59;7.10;;;5.13;;
6344;SDS011;3205;42.666;23.264;2023-12-07T09:05:25;6.57;;;4.83;;
6344;SDS011;3205;42.666;23.264;2023-12-07T09:07:52;8.27;;;5.97;;
6344;SDS011;3205;42.666;23.264;2023-12-07T09:10:18;5.47;;;4.43;;
6344;SDS011;3205;42.666;23.264;2023-12-07T09:12:45;6.67;;;4.80;;
6344;SDS011;3205;42.666;23.264;2023-12-07T09:15:11;11.47;;;6.30;;
6344;SDS011;3205;42.666;23.264;2023-12-07T09:17:39;6.40;;;4.60;;
6344;SDS011;3205;42.666;23.264;2023-12-07T09:20:06;6.20;;;4.00;;
6344;SDS011;3205;42.666;23.264;2023-12-07T09:22:37;8.67;;;5.90;;
6344;SDS011;3205;42.666;23.264;2023-12-07T09:25:04;7.83;;;5.00;;
6344;SDS011;3205;42.666;23.264;2023-12-07T09:27:32;6.33;;;4.57;;
6344;SDS011;3205;42.666;23.264;2023-12-07T09:30:00;6.73;;;4.63;;
6344;SDS011;3205;42.666;23.264;2023-12-07T09:32:26;5.93;;;4.23;;
6344;SDS011;3205;42.666;23.264;2023-12-07T09:34:54;8.30;;;4.87;;
6344;SDS011;3205;42.666;23.264;2023-12-07T09:37:20;10.97;;;5.77;;
6344;SDS011;3205;42.666;23.264;2023-12-07T09:39:46;7.17;;;4.07;;
6344;SDS011;3205;42.666;23.264;2023-12-07T09:42:12;9.40;;;4.10;;
6344;SDS011;3205;42.666;23.264;2023-12-07T09:44:39;19.43;;;4.70;;
6344;SDS011;3205;42.666;23.264;2023-12-07T09:47:05;6.43;;;3.73;;
6344;SDS011;3205;42.666;23.264;2023-12-07T09:49:32;7.33;;;4.23;;
6344;SDS011;3205;42.666;23.264;2023-12-07T09:51:59;8.43;;;4.30;;
6344;SDS011;3205;42.666;23.264;2023-12-07T09:54:28;8.80;;;4.00;;
6344;SDS011;3205;42.666;23.264;2023-12-07T09:56:55;8.30;;;3.47;;
6344;SDS011;3205;42.666;23.264;2023-12-07T09:59:22;5.33;;;3.67;;
6344;SDS011;3205;42.666;23.264;2023-12-07T10:01:48;5.67;;;3.87;;
6344;SDS011;3205;42.666;23.264;2023-12-07T10:04:15;9.53;;;4.73;;
6344;SDS011;3205;42.666;23.264;2023-12-07T10:06:43;12.73;;;5.97;;
6344;SDS011;3205;42.666;23.264;2023-12-07T10:09:13;11.83;;;5.33;;
6344;SDS011;3205;42.666;23.264;2023-12-07T10:11:40;4.80;;;3.03;;
6344;SDS011;3205;42.666;23.264;2023-12-07T10:14:07;3.80;;;2.20;;
6344;SDS011;3205;42.666;23.264;2023-12-07T10:16:34;7.80;;;3.17;;
6344;SDS011;3205;42.666;23.264;2023-12-07T10:19:09;3.87;;;2.43;;
6344;SDS011;3205;42.666;23.264;2023-12-07T10:21:39;3.30;;;2.63;;
6344;SDS011;3205;42.666;23.264;2023-12-07T10:24:05;2.30;;;2.10;;
6344;SDS011;3205;42.666;23.264;2023-12-07T10:26:32;4.57;;;2.60;;
6344;SDS011;3205;42.666;23.264;2023-12-07T10:29:01;2.73;;;1.83;;
6344;SDS011;3205;42.666;23.264;2023-12-07T10:31:27;3.60;;;1.87;;
6344;SDS011;3205;42.666;23.264;2023-12-07T10:33:56;3.77;;;1.93;;
6344;SDS011;3205;42.666;23.264;2023-12-07T10:36:22;2.10;;;1.90;;
6344;SDS011;3205;42.666;23.264;2023-12-07T10:38:49;3.50;;;2.43;;
6344;SDS011;3205;42.666;23.264;2023-12-07T10:41:16;3.83;;;2.50;;
6344;SDS011;3205;42.666;23.264;2023-12-07T10:43:46;5.03;;;2.50;;
6344;SDS011;3205;42.666;23.264;2023-12-07T10:46:15;4.30;;;2.70;;
6344;SDS011;3205;42.666;23.264;2023-12-07T10:48:42;2.70;;;2.50;;
6344;SDS011;3205;42.666;23.264;2023-12-07T10:51:13;3.70;;;2.83;;
6344;SDS011;3205;42.666;23.264;2023-12-07T10:53:49;6.63;;;3.80;;
6344;SDS011;3205;42.666;23.264;2023-12-07T10:56:24;9.73;;;3.80;;
6344;SDS011;3205;42.666;23.264;2023-12-07T10:58:55;5.80;;;3.27;;
6344;SDS011;3205;42.666;23.264;2023-12-07T11:01:24;6.47;;;3.30;;
6344;SDS011;3205;42.666;23.264;2023-12-07T11:03:51;5.73;;;3.40;;
6344;SDS011;3205;42.666;23.264;2023-12-07T11:06:18;4.67;;;2.50;;
6344;SDS011;3205;42.666;23.264;2023-12-07T11:08:46;8.53;;;3.40;;
6344;SDS011;3205;42.666;23.264;2023-12-07T11:11:18;6.37;;;3.03;;
6344;SDS011;3205;42.666;23.264;2023-12-07T11:13:52;5.37;;;3.07;;
6344;SDS011;3205;42.666;23.264;2023-12-07T11:16:30;4.27;;;3.17;;
6344;SDS011;3205;42.666;23.264;2023-12-07T11:18:57;5.33;;;2.90;;
6344;SDS011;3205;42.666;23.264;2023-12-07T11:21:24;4.20;;;2.70;;
6344;SDS011;3205;42.666;23.264;2023-12-07T11:23:50;3.97;;;3.10;;
6344;SDS011;3205;42.666;23.264;2023-12-07T11:26:18;5.00;;;3.60;;
6344;SDS011;3205;42.666;23.264;2023-12-07T11:28:45;4.97;;;3.47;;
6344;SDS011;3205;42.666;23.264;2023-12-07T11:31:11;9.80;;;5.60;;
6344;SDS011;3205;42.666;23.264;2023-12-07T11:33:38;9.13;;;5.30;;
6344;SDS011;3205;42.666;23.264;2023-12-07T11:36:06;11.87;;;5.80;;
6344;SDS011;3205;42.666;23.264;2023-12-07T11:38:33;5.90;;;4.57;;
6344;SDS011;3205;42.666;23.264;2023-12-07T11:40:59;4.97;;;3.80;;
6344;SDS011;3205;42.666;23.264;2023-12-07T11:43:42;7.67;;;3.83;;
6344;SDS011;3205;42.666;23.264;2023-12-07T11:46:11;5.60;;;3.10;;
6344;SDS011;3205;42.666;23.264;2023-12-07T11:48:40;5.03;;;4.43;;
6344;SDS011;3205;42.666;23.264;2023-12-07T11:51:12;7.40;;;4.80;;
6344;SDS011;3205;42.666;23.264;2023-12-07T11:53:39;10.77;;;4.80;;
6344;SDS011;3205;42.666;23.264;2023-12-07T11:56:05;8.20;;;4.63;;
6344;SDS011;3205;42.666;23.264;2023-12-07T11:58:34;10.43;;;4.63;;
6344;SDS011;3205;42.666;23.264;2023-12-07T12:01:02;8.87;;;4.23;;
6344;SDS011;3205;42.666;23.264;2023-12-07T12:03:30;11.57;;;4.47;;
6344;SDS011;3205;42.666;23.264;2023-12-07T12:05:58;8.30;;;3.40;;
6344;SDS011;3205;42.666;23.264;2023-12-07T12:08:24;8.90;;;4.13;;
6344;SDS011;3205;42.666;23.264;2023-12-07T12:10:51;11.17;;;6.10;;
6344;SDS011;3205;42.666;23.264;2023-12-07T12:13:25;17.47;;;10.53;;
6344;SDS011;3205;42.666;23.264;2023-12-07T12:15:52;10.83;;;6.37;;
6344;SDS011;3205;42.666;23.264;2023-12-07T12:18:19;11.93;;;6.30;;
6344;SDS011;3205;42.666;23.264;2023-12-07T12:20:45;7.53;;;6.13;;
6344;SDS011;3205;42.666;23.264;2023-12-07T12:23:12;11.57;;;7.10;;
6344;SDS011;3205;42.666;23.264;2023-12-07T12:25:39;17.50;;;10.30;;
6344;SDS011;3205;42.666;23.264;2023-12-07T12:28:06;10.17;;;5.73;;
6344;SDS011;3205;42.666;23.264;2023-12-07T12:30:33;6.80;;;4.60;;
6344;SDS011;3205;42.666;23.264;2023-12-07T12:32:59;3.33;;;3.00;;
6344;SDS011;3205;42.666;23.264;2023-12-07T12:35:26;4.50;;;3.37;;
6344;SDS011;3205;42.666;23.264;2023-12-07T12:37:52;5.53;;;3.70;;
6344;SDS011;3205;42.666;23.264;2023-12-07T12:40:21;8.33;;;4.37;;
6344;SDS011;3205;42.666;23.264;2023-12-07T12:42:49;4.47;;;3.10;;
6344;SDS011;3205;42.666;23.264;2023-12-07T12:45:16;5.77;;;3.20;;
6344;SDS011;3205;42.666;23.264;2023-12-07T12:47:44;4.50;;;3.60;;
6344;SDS011;3205;42.666;23.264;2023-12-07T12:50:12;7.20;;;4.20;;
6344;SDS011;3205;42.666;23.264;2023-12-07T12:52:58;3.97;;;3.67;;
6344;SDS011;3205;42.666;23.264;2023-12-07T12:55:26;5.57;;;3.63;;
6344;SDS011;3205;42.666;23.264;2023-12-07T12:57:52;6.13;;;3.97;;
6344;SDS011;3205;42.666;23.264;2023-12-07T13:00:18;5.17;;;4.43;;
6344;SDS011;3205;42.666;23.264;2023-12-07T13:02:45;5.60;;;4.13;;
6344;SDS011;3205;42.666;23.264;2023-12-07T13:05:13;5.50;;;4.33;;
6344;SDS011;3205;42.666;23.264;2023-12-07T13:07:40;6.33;;;4.33;;
6344;SDS011;3205;42.666;23.264;2023-12-07T13:10:06;7.23;;;4.30;;
6344;SDS011;3205;42.666;23.264;2023-12-07T13:12:34;12.57;;;4.53;;
6344;SDS011;3205;42.666;23.264;2023-12-07T13:15:00;12.13;;;4.37;;
6344;SDS011;3205;42.666;23.264;2023-12-07T13:17:27;4.67;;;3.73;;
6344;SDS011;3205;42.666;23.264;2023-12-07T13:19:53;4.27;;;3.40;;
6344;SDS011;3205;42.666;23.264;2023-12-07T13:22:19;4.47;;;3.47;;
6344;SDS011;3205;42.666;23.264;2023-12-07T13:24:47;6.00;;;4.03;;
6344;SDS011;3205;42.666;23.264;2023-12-07T13:27:14;13.70;;;4.13;;
6344;SDS011;3205;42.666;23.264;2023-12-07T13:29:41;4.70;;;3.77;;
6344;SDS011;3205;42.666;23.264;2023-12-07T13:32:08;5.43;;;3.90;;
6344;SDS011;3205;42.666;23.264;2023-12-07T13:34:35;7.73;;;4.63;;
6344;SDS011;3205;42.666;23.264;2023-12-07T13:37:01;5.37;;;4.40;;
6344;SDS011;3205;42.666;23.264;2023-12-07T13:39:27;5.70;;;4.33;;
6344;SDS011;3205;42.666;23.264;2023-12-07T13:41:55;7.00;;;5.10;;
6344;SDS011;3205;42.666;23.264;2023-12-07T13:44:21;6.73;;;5.23;;
6344;SDS011;3205;42.666;23.264;2023-12-07T13:46:50;8.50;;;5.77;;
6344;SDS011;3205;42.666;23.264;2023-12-07T13:49:18;11.20;;;7.23;;
6344;SDS011;3205;42.666;23.264;2023-12-07T13:51:45;9.30;;;6.20;;
6344;SDS011;3205;42.666;23.264;2023-12-07T13:54:11;8.97;;;5.73;;
6344;SDS011;3205;42.666;23.264;2023-12-07T13:56:38;10.40;;;6.40;;
6344;SDS011;3205;42.666;23.264;2023-12-07T13:59:05;14.07;;;7.33;;
6344;SDS011;3205;42.666;23.264;2023-12-07T14:01:35;14.80;;;7.07;;
6344;SDS011;3205;42.666;23.264;2023-12-07T14:04:02;14.67;;;7.03;;
6344;SDS011;3205;42.666;23.264;2023-12-07T14:06:30;16.67;;;8.33;;
6344;SDS011;3205;42.666;23.264;2023-12-07T14:08:58;14.57;;;7.70;;
6344;SDS011;3205;42.666;23.264;2023-12-07T14:11:24;12.37;;;7.57;;
6344;SDS011;3205;42.666;23.264;2023-12-07T14:13:50;10.33;;;7.37;;
6344;SDS011;3205;42.666;23.264;2023-12-07T14:16:19;9.83;;;6.33;;
6344;SDS011;3205;42.666;23.264;2023-12-07T14:18:45;14.67;;;8.37;;
6344;SDS011;3205;42.666;23.264;2023-12-07T14:21:12;11.80;;;7.03;;
6344;SDS011;3205;42.666;23.264;2023-12-07T14:23:39;20.47;;;7.87;;
6344;SDS011;3205;42.666;23.264;2023-12-07T14:26:05;19.83;;;8.13;;
6344;SDS011;3205;42.666;23.264;2023-12-07T14:28:32;10.57;;;7.27;;
6344;SDS011;3205;42.666;23.264;2023-12-07T14:31:00;13.50;;;7.70;;
6344;SDS011;3205;42.666;23.264;2023-12-07T14:33:26;15.87;;;8.07;;
6344;SDS011;3205;42.666;23.264;2023-12-07T14:35:52;12.93;;;8.67;;
6344;SDS011;3205;42.666;23.264;2023-12-07T14:38:19;11.43;;;8.20;;
6344;SDS011;3205;42.666;23.264;2023-12-07T14:40:46;14.63;;;9.13;;
6344;SDS011;3205;42.666;23.264;2023-12-07T14:43:12;15.57;;;9.70;;